Airfield :







YOU CAN JOIN US ON...

 
LOGIN :

Register | Disclaimer

   EN    FR    IT 

 









Legend :    VFR   Marginal VFR   IFR   Intensive IFR   Very Intensive IFR
Visi :
Ceiling :
>= 8 km
>= 3000ft
5 to 8 km
1000 to 3000 ft
1500m to 5 km
500 to 1000 ft
800 to 1500m
200 to 500 ft
< 800m
< 200 ft
Symbols :   Thunderstorms  Fog  Heavy snow  Heavy precipitations  Wind > 20 kt






- Airport Elevation : 6 ft
- IATA code : AEY


BIAR - Akureyri

CURRENT METAR :
  • 072100Z 33007G18KT 290V020 9999 FEW044 BKN062 M01/M07 Q1003 RMK WIND VADLAHEIDI 32525KT

EXPIRED METARs :
  • 072000Z 36015KT 9999 BKN051 M01/M06 Q1002 RMK WIND VADLAHEIDI 32421KT
  • 071900Z 34015KT 300V360 9999 SCT038 BKN047 M01/M06 Q1001 RMK WIND VADLAHEIDI 32525KT

TAF TAF BIAR
Valid from the 07 at 21:00 until the 08 at 21:00 UTC


071921Z 0721/0821 35015KT 9999 BKN035 TXM00/0815Z TNM04/0803Z
BECMG 0723/0801 8000 -SN BKN015
TEMPO 0800/0806 2000 SN OVC008
BECMG 0811/0813 9999 NSW BKN040
BECMG 0818/0821 VRB02KT CAVOK



MET'MAP, your aeronautical weather chart ! - Copyright ORBIFLY December 2007 - Disclaimer

ORBIFLY MET'MAP TEAM :

Programming & Development : Alexandra Zaïnal
Concept & original design : Baudouin d'Aumeries
Assistance for programming : Marc-Olivier Méhu
Technical & hardware support : Manuel Goepfert

Contact : metmap@orbifly.com




SOURCES & CREDITS :

   NOAA